Urb Pastor Felix Rios Lopez, Puerto Rico
Current Conditions -  °F | °C
As of 4:53 AM on Wednesday 26 Nov 2014 (Local Time) from TJNR Reporting Station
Overcast Overcast  
Wind Chill: 77°   Ceiling: 4800
Heat Index: 78°   Visibility: 10mi
Dew Point: 73°   Wind: 5mph
Humidity: 88%   Direction: 160°SSE
Pressure: 30"   Gusts: NA
Location:  18.2667°N, 65.6476°W
Report Text: TJNR 260853Z AUTO 16004KT 10SM FEW025 BKN048 OVC080 25/23 A3000 RMK AO2 RAB39E51 SLP158 P0001 60001 T02500228 55004 $
Loading
Personal Weather Stations






























Interactive Weather Map New forecast layout! Learn more

10-Day Weather Forecast

Advertisements
Track Severe Weather on mobile